createdAt,value
2023-04-10T00:02:30.116Z,4.41
2023-04-10T00:07:37.794Z,4.61
2023-04-10T00:12:45.881Z,4.62
2023-04-10T00:17:53.450Z,4.18
2023-04-10T00:23:01.433Z,4.06
2023-04-10T00:28:08.913Z,4.46
2023-04-10T00:33:17.049Z,3.92
2023-04-10T00:38:24.619Z,4.18
2023-04-10T00:43:32.532Z,4.06
2023-04-10T00:48:40.255Z,3.81
2023-04-10T00:53:48.269Z,3.76
2023-04-10T00:58:55.913Z,3.71
2023-04-10T01:04:04.220Z,3.75
2023-04-10T01:09:11.899Z,3.77
2023-04-10T01:14:20.188Z,3.82
2023-04-10T01:19:27.839Z,3.69
2023-04-10T01:24:36.272Z,3.44
2023-04-10T01:29:44.705Z,3.39
2023-04-10T01:34:51.776Z,3.38
2023-04-10T01:39:59.485Z,3.47
2023-04-10T01:45:07.670Z,3.11
2023-04-10T01:50:15.140Z,3.39
2023-04-10T01:55:23.028Z,3.50
2023-04-10T02:00:30.736Z,3.21
2023-04-10T02:05:38.796Z,3.34
2023-04-10T02:10:46.736Z,3.24
2023-04-10T02:15:54.668Z,3.11
2023-04-10T02:21:02.128Z,3.35
2023-04-10T02:26:09.865Z,3.24
2023-04-10T02:31:17.361Z,3.40
2023-04-10T02:36:25.299Z,3.07
2023-04-10T02:41:32.999Z,3.07
2023-04-10T02:46:40.842Z,3.28
2023-04-10T02:51:48.380Z,3.23
2023-04-10T02:56:56.463Z,3.13
2023-04-10T03:02:04.151Z,3.07
2023-04-10T03:07:12.208Z,3.08
2023-04-10T03:12:19.681Z,3.24
2023-04-10T03:17:27.683Z,2.79
2023-04-10T03:22:35.272Z,2.84
2023-04-10T03:27:43.100Z,2.84
2023-04-10T03:32:50.869Z,2.68
2023-04-10T03:37:59.042Z,2.83
2023-04-10T03:43:06.504Z,2.94
2023-04-10T03:48:16.390Z,2.92
2023-04-10T03:53:24.044Z,2.64
2023-04-10T03:58:32.142Z,2.75
2023-04-10T04:03:40.193Z,2.81
2023-04-10T04:08:47.845Z,2.82
2023-04-10T04:13:55.853Z,2.75
2023-04-10T04:19:03.674Z,2.84
2023-04-10T04:24:11.513Z,2.33
2023-04-10T04:29:19.581Z,2.48
2023-04-10T04:34:27.029Z,2.49
2023-04-10T04:39:35.026Z,2.47
2023-04-10T04:44:42.618Z,2.21
2023-04-10T04:49:50.648Z,2.46
2023-04-10T04:54:58.164Z,2.48
2023-04-10T05:00:06.418Z,2.25
2023-04-10T05:05:14.226Z,2.46
2023-04-10T05:10:22.431Z,2.61
2023-04-10T05:15:30.404Z,2.56
2023-04-10T05:20:38.824Z,2.37
2023-04-10T05:25:46.382Z,2.29
2023-04-10T05:30:54.575Z,2.38
2023-04-10T05:36:02.039Z,2.41
2023-04-10T05:41:10.557Z,2.34
2023-04-10T05:46:18.346Z,2.34
2023-04-10T05:51:26.408Z,2.12
2023-04-10T05:56:34.067Z,2.23
2023-04-10T06:01:42.255Z,2.09
2023-04-10T06:06:49.914Z,2.18
2023-04-10T06:11:57.791Z,2.20
2023-04-10T06:17:05.321Z,2.34
2023-04-10T06:22:13.524Z,2.23
2023-04-10T06:27:21.234Z,2.22
2023-04-10T06:32:29.258Z,2.19
2023-04-10T06:37:36.681Z,2.12
2023-04-10T06:42:44.364Z,2.25
2023-04-10T06:47:51.826Z,2.18
2023-04-10T06:52:59.979Z,2.18
2023-04-10T06:58:07.725Z,2.21
2023-04-10T07:03:15.821Z,2.15
2023-04-10T07:08:23.479Z,2.12
2023-04-10T07:13:31.660Z,1.92
2023-04-10T07:18:39.204Z,2.01
2023-04-10T07:23:47.173Z,2.15
2023-04-10T07:28:55.217Z,2.09
2023-04-10T07:34:02.176Z,2.09
2023-04-10T07:39:09.675Z,1.99
2023-04-10T07:44:17.583Z,1.97
2023-04-10T07:49:27.545Z,2.04
2023-04-10T07:54:35.372Z,1.83
2023-04-10T07:59:43.020Z,2.11
2023-04-10T08:04:51.105Z,2.02
2023-04-10T08:09:58.751Z,2.00
2023-04-10T08:15:06.607Z,1.98
2023-04-10T08:20:14.153Z,1.89
2023-04-10T08:25:21.884Z,2.08
2023-04-10T08:30:29.609Z,1.97
2023-04-10T08:35:37.613Z,1.89
2023-04-10T08:40:45.185Z,1.96
2023-04-10T08:45:53.287Z,1.86
2023-04-10T08:51:00.889Z,1.85
2023-04-10T08:56:08.878Z,1.76
2023-04-10T09:01:18.952Z,1.88
2023-04-10T09:06:17.031Z,1.85
2023-04-10T09:11:24.534Z,2.04
2023-04-10T09:16:32.804Z,1.78
2023-04-10T09:21:40.391Z,1.78
2023-04-10T09:26:48.397Z,1.80
2023-04-10T09:31:56.127Z,1.81
2023-04-10T09:37:04.133Z,2.11
2023-04-10T09:42:11.955Z,1.80
2023-04-10T09:47:20.166Z,1.76
2023-04-10T09:52:28.067Z,1.85
2023-04-10T09:57:36.022Z,13.52
2023-04-10T10:02:43.934Z,17.59
2023-04-10T10:07:51.731Z,16.03
2023-04-10T10:12:59.328Z,15.21
2023-04-10T10:18:07.331Z,14.96
2023-04-10T10:23:14.896Z,13.00
2023-04-10T10:28:22.985Z,12.38
2023-04-10T10:33:30.465Z,11.97
2023-04-10T10:38:38.465Z,12.01
2023-04-10T10:43:46.029Z,11.14
2023-04-10T10:48:54.043Z,11.29
2023-04-10T10:54:01.727Z,11.06
2023-04-10T10:59:09.918Z,10.27
2023-04-10T11:04:17.883Z,10.33
2023-04-10T11:09:25.878Z,9.71
2023-04-10T11:14:33.579Z,9.70
2023-04-10T11:19:42.380Z,9.51
2023-04-10T11:24:50.077Z,9.60
2023-04-10T11:29:58.113Z,8.70
2023-04-10T11:35:05.817Z,8.40
2023-04-10T11:40:13.905Z,8.29
2023-04-10T11:45:21.305Z,8.55
2023-04-10T11:50:29.425Z,7.76
2023-04-10T11:55:37.236Z,8.15
2023-04-10T12:00:45.431Z,7.74
2023-04-10T12:05:53.083Z,7.50
2023-04-10T12:11:00.810Z,7.39
2023-04-10T12:16:08.721Z,7.22
2023-04-10T12:21:16.496Z,7.17
2023-04-10T12:26:23.980Z,7.64
2023-04-10T12:31:34.374Z,6.91
2023-04-10T12:36:32.000Z,7.14
2023-04-10T12:41:39.911Z,6.85
2023-04-10T12:46:47.436Z,6.74
2023-04-10T12:51:55.360Z,6.43
2023-04-10T12:57:03.143Z,6.08
2023-04-10T13:02:11.207Z,6.22
2023-04-10T13:07:18.640Z,6.28
2023-04-10T13:12:26.742Z,6.66
2023-04-10T13:17:34.396Z,6.13
2023-04-10T13:22:42.541Z,5.96
2023-04-10T13:27:50.228Z,6.16
2023-04-10T13:32:58.150Z,5.70
2023-04-10T13:38:05.773Z,5.77
2023-04-10T13:43:13.574Z,5.64
2023-04-10T13:48:22.281Z,5.62
2023-04-10T13:53:28.672Z,5.48
2023-04-10T13:58:36.533Z,5.39
2023-04-10T14:03:44.614Z,5.51
2023-04-10T14:08:53.098Z,5.54
2023-04-10T14:14:00.298Z,5.17
2023-04-10T14:19:07.976Z,5.61
2023-04-10T14:24:15.853Z,5.03
2023-04-10T14:29:33.237Z,5.27
2023-04-10T14:34:31.447Z,4.96
2023-04-10T14:39:39.285Z,5.17
2023-04-10T14:44:47.410Z,5.15
2023-04-10T14:49:54.926Z,5.02
2023-04-10T14:55:02.907Z,4.87
2023-04-10T15:00:10.392Z,4.79
2023-04-10T15:05:18.392Z,4.22
2023-04-10T15:10:26.073Z,3.98
2023-04-10T15:15:33.805Z,4.31
2023-04-10T15:20:41.491Z,3.73
2023-04-10T15:25:49.359Z,3.55
2023-04-10T15:30:57.193Z,3.71
2023-04-10T15:36:05.428Z,3.97
2023-04-10T15:41:12.905Z,3.41
2023-04-10T15:46:20.853Z,3.57
2023-04-10T15:51:28.216Z,3.19
2023-04-10T15:56:36.037Z,3.09
2023-04-10T16:01:43.751Z,3.20
2023-04-10T16:06:51.948Z,3.14
2023-04-10T16:11:59.620Z,2.95
2023-04-10T16:17:07.640Z,2.83
2023-04-10T16:22:15.226Z,2.85
2023-04-10T16:27:23.118Z,3.07
2023-04-10T16:32:31.869Z,2.76
2023-04-10T16:37:38.383Z,2.67
2023-04-10T16:42:46.033Z,2.65
2023-04-10T16:47:54.234Z,2.63
2023-04-10T16:53:01.738Z,2.54
2023-04-10T16:58:09.959Z,2.77
2023-04-10T17:03:17.676Z,2.69
2023-04-10T17:08:25.702Z,2.60
2023-04-10T17:13:33.438Z,2.58
2023-04-10T17:18:41.318Z,2.71
2023-04-10T17:23:49.146Z,2.57
2023-04-10T17:28:57.348Z,2.53
2023-04-10T17:34:04.942Z,2.58
2023-04-10T17:39:12.900Z,2.45
2023-04-10T17:44:20.375Z,2.61
2023-04-10T17:49:28.585Z,2.58
2023-04-10T17:54:36.271Z,2.29
2023-04-10T17:59:44.312Z,2.40
2023-04-10T18:04:51.988Z,2.32
2023-04-10T18:09:59.934Z,2.36
2023-04-10T18:15:07.755Z,2.29
2023-04-10T18:20:16.249Z,2.43
2023-04-10T18:25:24.004Z,2.25
2023-04-10T18:30:32.134Z,2.37
2023-04-10T18:35:39.839Z,2.48
2023-04-10T18:40:47.789Z,2.40
2023-04-10T18:45:55.663Z,2.26
2023-04-10T18:51:03.471Z,2.16
2023-04-10T18:56:11.472Z,2.15
2023-04-10T19:01:19.783Z,2.21
2023-04-10T19:06:27.565Z,2.23
2023-04-10T19:11:35.995Z,2.00
2023-04-10T19:16:43.467Z,2.28
2023-04-10T19:21:51.369Z,2.25
2023-04-10T19:26:58.881Z,2.11
2023-04-10T19:32:06.765Z,2.27
2023-04-10T19:37:14.296Z,2.23
2023-04-10T19:42:22.584Z,2.18
2023-04-10T19:47:30.127Z,2.25
2023-04-10T19:52:37.886Z,2.09
2023-04-10T19:57:45.935Z,2.01
2023-04-10T20:02:53.786Z,2.22
2023-04-10T20:08:01.300Z,2.13
2023-04-10T20:13:09.431Z,1.89
2023-04-10T20:18:16.896Z,1.80
2023-04-10T20:23:24.818Z,1.88
2023-04-10T20:28:32.504Z,2.05
2023-04-10T20:33:40.888Z,1.90
2023-04-10T20:38:48.729Z,1.98
2023-04-10T20:43:56.597Z,2.02
2023-04-10T20:49:04.185Z,2.06
2023-04-10T20:54:12.248Z,2.03
2023-04-10T20:59:19.710Z,1.95
2023-04-10T21:04:27.995Z,2.04
2023-04-10T21:09:35.666Z,1.92
2023-04-10T21:14:44.101Z,1.96
2023-04-10T21:19:51.710Z,1.86
2023-04-10T21:24:59.719Z,1.93
2023-04-10T21:30:07.439Z,2.05
2023-04-10T21:35:15.872Z,2.01
2023-04-10T21:40:23.573Z,1.89
2023-04-10T21:45:31.875Z,1.88
2023-04-10T21:50:39.256Z,1.90
2023-04-10T21:55:47.062Z,1.89
2023-04-10T22:01:01.625Z,1.91
2023-04-10T22:05:59.720Z,1.94
2023-04-10T22:11:07.181Z,1.79
2023-04-10T22:16:15.344Z,1.91
2023-04-10T22:21:23.395Z,1.80
2023-04-10T22:26:31.046Z,1.79
2023-04-10T22:31:40.602Z,1.89
2023-04-10T22:36:49.959Z,2.00
2023-04-10T22:41:55.852Z,1.90
2023-04-10T22:47:04.044Z,1.96
2023-04-10T22:52:11.872Z,2.00
2023-04-10T22:57:20.109Z,1.95
2023-04-10T23:02:27.923Z,1.74
2023-04-10T23:07:35.740Z,1.88
2023-04-10T23:12:43.393Z,1.86
2023-04-10T23:17:51.104Z,1.90
2023-04-10T23:22:58.634Z,1.81
2023-04-10T23:28:06.744Z,1.87
2023-04-10T23:33:14.224Z,1.68
2023-04-10T23:38:22.185Z,1.91
2023-04-10T23:43:29.834Z,1.86
2023-04-10T23:48:37.759Z,1.76
2023-04-10T23:53:45.499Z,1.87
2023-04-10T23:58:54.019Z,1.71
